Kuwait City, Kuwait
Current Conditions -  °F | °C
As of 1:00 AM on Tuesday 27 Jan 2015 (Local Time) from OKBK Reporting Station
Haze Haze  
Wind Chill: 15°   Ceiling: 10000
Heat Index: 15°   Visibility: 2.8mi
Dew Point: 11°   Wind: 15mph
Humidity: 77%   Direction: 170°S
Pressure: 30.09"   Gusts: NA
Location:  29.22°N, 47.98°E
Report Text: OKBK 262200Z 17013KT 4500 -HZ FEW040 BKN100 15/11 Q1019 NOSIG
Loading
Personal Weather Stations






























Interactive Weather Map New forecast layout! Learn more

10-Day Weather Forecast

Advertisements
Track Severe Weather on mobile